Time,TemperatureF,DewpointF,PressureIn,WindDirection,WindDirectionDegrees,WindSpeedMPH,WindSpeedGustMPH,Humidity,HourlyPrecipIn,Conditions,Clouds,dailyrainin,SoftwareType,DateUTC
2013-03-20 00:00:00,25.5,24.1,29.85,WNW,297,3.0,5.0,94,0.00,,,0.00,meteohub,2013-03-20 04:00:00,
2013-03-20 00:01:00,25.5,24.1,29.85,WNW,297,0.0,6.0,94,0.00,,,0.00,meteohub,2013-03-20 04:01:00,
2013-03-20 00:06:00,25.2,23.7,29.85,North,5,1.0,6.0,94,0.00,,,0.00,meteohub,2013-03-20 04:06:00,
2013-03-20 00:11:00,25.2,23.7,29.85,West,263,2.0,6.0,94,0.00,,,0.00,meteohub,2013-03-20 04:11:00,
2013-03-20 00:16:00,25.0,23.5,29.85,West,263,3.0,8.0,94,0.00,,,0.00,meteohub,2013-03-20 04:16:00,
2013-03-20 00:21:00,24.8,23.4,29.85,West,279,1.0,8.0,94,0.00,,,0.00,meteohub,2013-03-20 04:21:00,
2013-03-20 00:27:00,24.6,23.2,29.85,WNW,294,0.0,8.0,94,0.00,,,0.00,meteohub,2013-03-20 04:27:00,
2013-03-20 00:32:00,24.6,23.2,29.84,WSW,253,7.0,7.0,94,0.00,,,0.00,meteohub,2013-03-20 04:32:00,
2013-03-20 00:37:00,24.4,22.6,29.84,WSW,257,2.0,7.0,93,0.00,,,0.00,meteohub,2013-03-20 04:37:00,
2013-03-20 00:42:00,24.3,22.3,29.84,West,270,2.0,7.0,92,0.00,,,0.00,meteohub,2013-03-20 04:42:00,
2013-03-20 00:47:00,24.3,22.1,29.84,ENE,70,0.0,7.0,91,0.00,,,0.00,meteohub,2013-03-20 04:47:00,
2013-03-20 00:52:00,24.3,22.1,29.84,NNW,348,1.0,8.0,91,0.00,,,0.00,meteohub,2013-03-20 04:52:00,
2013-03-20 00:57:00,24.3,22.1,29.83,WNW,287,3.0,8.0,91,0.00,,,0.00,meteohub,2013-03-20 04:57:00,
2013-03-20 01:02:00,24.1,21.6,29.83,West,277,2.0,7.0,90,0.00,,,0.00,meteohub,2013-03-20 05:02:00,
2013-03-20 01:07:00,23.9,21.4,29.83,WSW,243,0.0,8.0,90,0.00,,,0.00,meteohub,2013-03-20 05:07:00,
2013-03-20 01:12:00,23.7,21.0,29.83,WSW,240,0.0,8.0,89,0.00,,,0.00,meteohub,2013-03-20 05:12:00,
2013-03-20 01:17:00,23.7,21.0,29.83,NW,309,2.0,8.0,89,0.00,,,0.00,meteohub,2013-03-20 05:17:00,
2013-03-20 01:22:00,23.7,21.0,29.83,NW,306,0.0,6.0,89,0.00,,,0.00,meteohub,2013-03-20 05:22:00,
2013-03-20 01:27:00,23.7,21.2,29.83,WSW,252,5.0,5.0,90,0.00,,,0.00,meteohub,2013-03-20 05:27:00,
2013-03-20 01:32:00,23.7,21.2,29.83,WNW,299,1.0,6.0,90,0.00,,,0.00,meteohub,2013-03-20 05:32:00,
2013-03-20 01:37:00,23.5,21.0,29.83,West,278,5.0,6.0,90,0.00,,,0.00,meteohub,2013-03-20 05:37:00,
2013-03-20 01:42:00,23.4,20.8,29.83,West,261,4.0,9.0,90,0.00,,,0.00,meteohub,2013-03-20 05:42:00,
2013-03-20 01:47:00,23.0,20.5,29.83,West,265,0.0,11.0,90,0.00,,,0.00,meteohub,2013-03-20 05:47:00,
2013-03-20 01:52:00,22.8,20.3,29.83,West,265,0.0,11.0,90,0.00,,,0.00,meteohub,2013-03-20 05:52:00,
2013-03-20 01:57:00,22.6,19.9,29.83,West,265,6.0,11.0,89,0.00,,,0.00,meteohub,2013-03-20 05:57:00,
2013-03-20 02:02:00,22.5,19.9,29.83,WNW,291,3.0,11.0,90,0.00,,,0.00,meteohub,2013-03-20 06:02:00,
2013-03-20 02:07:00,22.5,19.9,29.83,WSW,241,4.0,11.0,90,0.00,,,0.00,meteohub,2013-03-20 06:07:00,
2013-03-20 02:12:00,22.5,19.8,29.83,West,261,0.0,11.0,89,0.00,,,0.00,meteohub,2013-03-20 06:12:00,
2013-03-20 02:17:00,22.5,19.9,29.83,West,261,0.0,8.0,90,0.00,,,0.00,meteohub,2013-03-20 06:17:00,
2013-03-20 02:22:00,22.3,19.6,29.83,WSW,237,3.0,7.0,89,0.00,,,0.00,meteohub,2013-03-20 06:22:00,
2013-03-20 02:27:00,22.3,19.6,29.83,WNW,287,1.0,8.0,89,0.00,,,0.00,meteohub,2013-03-20 06:27:00,
2013-03-20 02:32:00,22.3,19.6,29.83,West,260,0.0,9.0,89,0.00,,,0.00,meteohub,2013-03-20 06:32:00,
2013-03-20 02:37:00,22.1,19.0,29.83,NNW,340,0.0,9.0,88,0.00,,,0.00,meteohub,2013-03-20 06:37:00,
2013-03-20 02:42:00,22.1,19.0,29.83,NW,315,0.0,9.0,88,0.00,,,0.00,meteohub,2013-03-20 06:42:00,
2013-03-20 02:47:00,21.9,18.9,29.83,NW,323,0.0,7.0,88,0.00,,,0.00,meteohub,2013-03-20 06:47:00,
2013-03-20 02:52:00,21.9,18.9,29.83,NW,315,2.0,7.0,88,0.00,,,0.00,meteohub,2013-03-20 06:52:00,
2013-03-20 02:57:00,21.9,18.9,29.83,NW,319,4.0,7.0,88,0.00,,,0.00,meteohub,2013-03-20 06:57:00,
2013-03-20 03:02:00,21.9,18.9,29.83,WSW,249,3.0,9.0,88,0.00,,,0.00,meteohub,2013-03-20 07:02:00,
2013-03-20 03:07:00,21.7,18.7,29.82,NW,317,1.0,10.0,88,0.00,,,0.00,meteohub,2013-03-20 07:07:00,
2013-03-20 03:12:00,21.7,18.7,29.82,NW,306,2.0,10.0,88,0.00,,,0.00,meteohub,2013-03-20 07:12:00,
2013-03-20 03:17:00,21.7,18.7,29.82,NW,312,3.0,11.0,88,0.00,,,0.00,meteohub,2013-03-20 07:17:00,
2013-03-20 03:22:00,21.6,18.5,29.82,WNW,295,6.0,11.0,88,0.00,,,0.00,meteohub,2013-03-20 07:22:00,
2013-03-20 03:27:00,21.6,18.5,29.82,WNW,284,1.0,11.0,88,0.00,,,0.00,meteohub,2013-03-20 07:27:00,
2013-03-20 03:32:00,21.6,18.5,29.82,West,261,5.0,10.0,88,0.00,,,0.00,meteohub,2013-03-20 07:32:00,
2013-03-20 03:37:00,21.6,18.5,29.82,West,265,1.0,10.0,88,0.00,,,0.00,meteohub,2013-03-20 07:37:00,
2013-03-20 03:42:00,21.4,18.3,29.82,WSW,245,5.0,9.0,88,0.00,,,0.00,meteohub,2013-03-20 07:42:00,
2013-03-20 03:47:00,21.4,18.3,29.82,WSW,256,4.0,12.0,88,0.00,,,0.00,meteohub,2013-03-20 07:47:00,
2013-03-20 03:52:00,21.2,18.1,29.83,West,281,2.0,12.0,88,0.00,,,0.00,meteohub,2013-03-20 07:52:00,
2013-03-20 03:58:00,21.2,18.1,29.83,NW,311,1.0,12.0,88,0.00,,,0.00,meteohub,2013-03-20 07:58:00,
2013-03-20 04:03:00,21.0,18.0,29.83,NW,306,1.0,9.0,88,0.00,,,0.00,meteohub,2013-03-20 08:03:00,
2013-03-20 04:08:00,21.0,18.0,29.83,WSW,257,3.0,8.0,88,0.00,,,0.00,meteohub,2013-03-20 08:08:00,
2013-03-20 04:13:00,21.0,18.0,29.83,North,5,0.0,9.0,88,0.00,,,0.00,meteohub,2013-03-20 08:13:00,
2013-03-20 04:18:00,21.0,18.3,29.83,WSW,244,1.0,9.0,89,0.00,,,0.00,meteohub,2013-03-20 08:18:00,
2013-03-20 04:23:00,21.0,18.3,29.83,WSW,244,1.0,7.0,89,0.00,,,0.00,meteohub,2013-03-20 08:23:00,
2013-03-20 04:28:00,21.0,18.3,29.83,NW,325,1.0,7.0,89,0.00,,,0.00,meteohub,2013-03-20 08:28:00,
2013-03-20 04:33:00,20.8,18.3,29.83,WSW,242,3.0,7.0,90,0.00,,,0.00,meteohub,2013-03-20 08:33:00,
2013-03-20 04:38:00,20.8,18.3,29.83,West,263,0.0,7.0,90,0.00,,,0.00,meteohub,2013-03-20 08:38:00,
2013-03-20 04:43:00,20.8,18.3,29.82,WNW,299,3.0,9.0,90,0.00,,,0.00,meteohub,2013-03-20 08:43:00,
2013-03-20 04:48:00,20.7,18.5,29.83,NNW,342,3.0,9.0,91,0.00,,,0.00,meteohub,2013-03-20 08:48:00,
2013-03-20 04:53:00,20.7,18.5,29.83,West,276,1.0,9.0,91,0.00,,,0.00,meteohub,2013-03-20 08:53:00,
2013-03-20 04:58:00,20.7,18.1,29.83,NNW,331,1.0,7.0,90,0.00,,,0.00,meteohub,2013-03-20 08:58:00,
2013-03-20 05:03:00,20.7,18.1,29.83,WNW,290,3.0,7.0,90,0.00,,,0.00,meteohub,2013-03-20 09:03:00,
2013-03-20 05:08:00,20.7,18.1,29.83,NNW,327,3.0,7.0,90,0.00,,,0.00,meteohub,2013-03-20 09:08:00,
2013-03-20 05:13:00,20.5,17.8,29.83,West,267,1.0,7.0,89,0.00,,,0.00,meteohub,2013-03-20 09:13:00,
2013-03-20 05:18:00,20.5,17.8,29.83,NW,308,1.0,7.0,89,0.00,,,0.00,meteohub,2013-03-20 09:18:00,
2013-03-20 05:23:00,20.1,17.4,29.83,WSW,254,3.0,7.0,89,0.00,,,0.00,meteohub,2013-03-20 09:23:00,
2013-03-20 05:28:00,20.1,17.4,29.83,West,274,2.0,7.0,89,0.00,,,0.00,meteohub,2013-03-20 09:28:00,
2013-03-20 05:33:00,19.9,17.2,29.83,West,269,1.0,5.0,89,0.00,,,0.00,meteohub,2013-03-20 09:33:00,
2013-03-20 05:38:00,19.9,17.2,29.83,WNW,290,1.0,8.0,89,0.00,,,0.00,meteohub,2013-03-20 09:38:00,
2013-03-20 05:43:00,19.9,17.2,29.83,NW,323,1.0,9.0,89,0.00,,,0.00,meteohub,2013-03-20 09:43:00,
2013-03-20 05:48:00,19.8,17.2,29.83,West,267,0.0,9.0,90,0.00,,,0.00,meteohub,2013-03-20 09:48:00,
2013-03-20 05:53:00,19.8,17.2,29.83,West,275,1.0,9.0,90,0.00,,,0.00,meteohub,2013-03-20 09:53:00,
2013-03-20 05:58:00,19.9,17.4,29.83,NW,309,3.0,7.0,90,0.00,,,0.00,meteohub,2013-03-20 09:58:00,
2013-03-20 06:03:00,19.9,17.4,29.83,West,270,0.0,8.0,90,0.00,,,0.00,meteohub,2013-03-20 10:03:00,
2013-03-20 06:08:00,19.8,17.2,29.83,NW,309,1.0,8.0,90,0.00,,,0.00,meteohub,2013-03-20 10:08:00,
2013-03-20 06:13:00,19.8,17.2,29.84,West,271,2.0,8.0,90,0.00,,,0.00,meteohub,2013-03-20 10:13:00,
2013-03-20 06:18:00,19.8,17.2,29.83,West,264,2.0,6.0,90,0.00,,,0.00,meteohub,2013-03-20 10:18:00,
2013-03-20 06:23:00,19.8,17.2,29.83,West,265,4.0,6.0,90,0.00,,,0.00,meteohub,2013-03-20 10:23:00,
2013-03-20 06:28:00,19.8,17.2,29.83,WNW,284,0.0,6.0,90,0.00,,,0.00,meteohub,2013-03-20 10:28:00,
2013-03-20 06:33:00,19.6,16.9,29.83,NW,308,7.0,7.0,89,0.00,,,0.00,meteohub,2013-03-20 10:33:00,
2013-03-20 06:38:00,19.6,16.9,29.84,West,274,3.0,7.0,89,0.00,,,0.00,meteohub,2013-03-20 10:38:00,
2013-03-20 06:44:00,19.6,17.1,29.84,NW,318,4.0,7.0,90,0.00,,,0.00,meteohub,2013-03-20 10:44:00,
2013-03-20 06:49:00,19.6,17.1,29.84,West,261,2.0,7.0,90,0.00,,,0.00,meteohub,2013-03-20 10:49:00,
2013-03-20 06:54:00,19.6,17.1,29.84,NNW,327,1.0,8.0,90,0.00,,,0.00,meteohub,2013-03-20 10:54:00,
2013-03-20 06:59:00,19.6,17.1,29.84,WSW,257,0.0,8.0,90,0.00,,,0.00,meteohub,2013-03-20 10:59:00,
2013-03-20 07:04:00,19.8,17.2,29.84,NW,313,0.0,6.0,90,0.00,,,0.00,meteohub,2013-03-20 11:04:00,
2013-03-20 07:09:00,19.9,17.4,29.84,West,272,6.0,6.0,90,0.00,,,0.00,meteohub,2013-03-20 11:09:00,
2013-03-20 07:14:00,19.9,17.4,29.84,WNW,298,2.0,6.0,90,0.00,,,0.00,meteohub,2013-03-20 11:14:00,
2013-03-20 07:19:00,20.1,17.6,29.84,West,259,0.0,6.0,90,0.00,,,0.00,meteohub,2013-03-20 11:19:00,
2013-03-20 07:24:00,20.1,17.6,29.84,NW,315,5.0,7.0,90,0.00,,,0.00,meteohub,2013-03-20 11:24:00,
2013-03-20 07:29:00,20.5,17.8,29.84,West,267,2.0,7.0,89,0.00,,,0.00,meteohub,2013-03-20 11:29:00,
2013-03-20 07:34:00,20.5,17.8,29.84,WNW,288,2.0,8.0,89,0.00,,,0.00,meteohub,2013-03-20 11:34:00,
2013-03-20 07:39:00,20.7,18.0,29.85,West,270,0.0,8.0,89,0.00,,,0.00,meteohub,2013-03-20 11:39:00,
2013-03-20 07:44:00,20.8,18.1,29.85,West,269,2.0,7.0,89,0.00,,,0.00,meteohub,2013-03-20 11:44:00,
2013-03-20 07:49:00,20.8,18.1,29.85,WNW,288,1.0,6.0,89,0.00,,,0.00,meteohub,2013-03-20 11:49:00,
2013-03-20 07:54:00,20.8,18.1,29.84,West,269,0.0,6.0,89,0.00,,,0.00,meteohub,2013-03-20 11:54:00,
2013-03-20 07:59:00,20.8,17.8,29.84,NW,312,1.0,5.0,88,0.00,,,0.00,meteohub,2013-03-20 11:59:00,
2013-03-20 08:04:00,21.0,18.0,29.84,West,261,2.0,5.0,88,0.00,,,0.00,meteohub,2013-03-20 12:04:00,
2013-03-20 08:09:00,19.8,16.7,29.84,WSW,252,7.0,7.0,88,0.00,,,0.00,meteohub,2013-03-20 12:09:00,
2013-03-20 08:14:00,19.9,16.9,29.85,SW,232,10.0,13.0,88,0.00,,,0.00,meteohub,2013-03-20 12:14:00,
2013-03-20 08:19:00,20.1,17.1,29.85,WSW,255,11.0,15.0,88,0.00,,,0.00,meteohub,2013-03-20 12:19:00,
2013-03-20 08:24:00,20.1,17.1,29.85,SSW,213,8.0,18.0,88,0.00,,,0.00,meteohub,2013-03-20 12:24:00,
2013-03-20 08:29:00,19.9,16.9,29.85,WSW,244,7.0,18.0,88,0.00,,,0.00,meteohub,2013-03-20 12:29:00,
2013-03-20 08:34:00,20.1,17.1,29.85,West,271,5.0,18.0,88,0.00,,,0.00,meteohub,2013-03-20 12:34:00,
2013-03-20 08:39:00,20.1,17.1,29.85,WSW,246,6.0,17.0,88,0.00,,,0.00,meteohub,2013-03-20 12:39:00,
2013-03-20 08:44:00,19.9,16.9,29.85,WSW,246,8.0,17.0,88,0.00,,,0.00,meteohub,2013-03-20 12:44:00,
2013-03-20 08:49:00,20.3,17.2,29.84,West,264,7.0,17.0,88,0.00,,,0.00,meteohub,2013-03-20 12:49:00,
2013-03-20 08:54:00,20.5,17.4,29.84,SW,215,6.0,15.0,88,0.00,,,0.00,meteohub,2013-03-20 12:54:00,
2013-03-20 09:00:00,20.5,17.2,29.84,West,274,10.0,12.0,87,0.00,,,0.00,meteohub,2013-03-20 13:00:00,
2013-03-20 09:05:00,20.5,16.9,29.84,WSW,249,11.0,12.0,86,0.00,,,0.00,meteohub,2013-03-20 13:05:00,
2013-03-20 09:10:00,20.5,17.2,29.84,SW,232,8.0,16.0,87,0.00,,,0.00,meteohub,2013-03-20 13:10:00,
2013-03-20 09:15:00,20.5,17.2,29.84,WSW,248,6.0,16.0,87,0.00,,,0.00,meteohub,2013-03-20 13:15:00,
2013-03-20 09:20:00,20.7,17.4,29.84,West,277,6.0,16.0,87,0.00,,,0.00,meteohub,2013-03-20 13:20:00,
2013-03-20 09:25:00,20.7,17.4,29.84,SW,232,8.0,16.0,87,0.00,,,0.00,meteohub,2013-03-20 13:25:00,
2013-03-20 09:30:00,20.1,16.9,29.84,SW,216,7.0,16.0,87,0.00,,,0.00,meteohub,2013-03-20 13:30:00,
2013-03-20 09:35:00,20.1,17.1,29.84,WSW,252,10.0,16.0,88,0.00,,,0.00,meteohub,2013-03-20 13:35:00,
2013-03-20 09:40:00,20.5,17.4,29.84,SW,233,11.0,16.0,88,0.00,,,0.00,meteohub,2013-03-20 13:40:00,
2013-03-20 09:45:00,20.5,17.2,29.84,West,275,6.0,16.0,87,0.00,,,0.00,meteohub,2013-03-20 13:45:00,
2013-03-20 09:50:00,20.7,17.6,29.84,West,259,6.0,18.0,88,0.00,,,0.00,meteohub,2013-03-20 13:50:00,
2013-03-20 09:55:00,23.4,19.0,29.84,WSW,248,1.0,18.0,83,0.00,,,0.00,meteohub,2013-03-20 13:55:00,
2013-03-20 10:00:00,23.0,18.3,29.84,WSW,247,3.0,16.0,82,0.00,,,0.00,meteohub,2013-03-20 14:00:00,
2013-03-20 10:05:00,23.2,19.0,29.85,West,259,0.0,16.0,84,0.00,,,0.00,meteohub,2013-03-20 14:05:00,
2013-03-20 10:10:00,23.2,19.0,29.85,West,266,3.0,10.0,84,0.00,,,0.00,meteohub,2013-03-20 14:10:00,
2013-03-20 10:15:00,23.0,18.7,29.84,WSW,238,4.0,10.0,83,0.00,,,0.00,meteohub,2013-03-20 14:15:00,
2013-03-20 10:20:00,23.2,19.0,29.85,WSW,243,5.0,10.0,84,0.00,,,0.00,meteohub,2013-03-20 14:20:00,
2013-03-20 10:25:00,23.4,19.0,29.85,West,279,2.0,10.0,83,0.00,,,0.00,meteohub,2013-03-20 14:25:00,
2013-03-20 10:30:00,23.7,19.4,29.84,West,269,4.0,10.0,83,0.00,,,0.00,meteohub,2013-03-20 14:30:00,
2013-03-20 10:35:00,24.1,19.4,29.85,NW,317,2.0,11.0,82,0.00,,,0.00,meteohub,2013-03-20 14:35:00,
2013-03-20 10:40:00,24.6,19.6,29.85,ENE,63,0.0,11.0,81,0.00,,,0.00,meteohub,2013-03-20 14:40:00,
2013-03-20 10:45:00,24.4,18.9,29.85,West,265,5.0,9.0,79,0.00,,,0.00,meteohub,2013-03-20 14:45:00,
2013-03-20 10:50:00,24.3,19.0,29.85,West,272,1.0,9.0,80,0.00,,,0.00,meteohub,2013-03-20 14:50:00,
2013-03-20 10:55:00,24.1,19.0,29.85,SW,219,2.0,9.0,81,0.00,,,0.00,meteohub,2013-03-20 14:55:00,
2013-03-20 11:00:00,23.7,18.5,29.85,NNW,335,3.0,9.0,80,0.00,,,0.00,meteohub,2013-03-20 15:00:00,
2013-03-20 11:05:00,23.5,18.5,29.85,West,275,5.0,10.0,81,0.00,,,0.00,meteohub,2013-03-20 15:05:00,
2013-03-20 11:10:00,23.5,18.5,29.85,SSW,205,6.0,10.0,81,0.00,,,0.00,meteohub,2013-03-20 15:10:00,
2013-03-20 11:15:00,23.7,19.0,29.85,WSW,245,1.0,9.0,82,0.00,,,0.00,meteohub,2013-03-20 15:15:00,
2013-03-20 11:20:00,24.3,19.6,29.85,WSW,241,2.0,9.0,82,0.00,,,0.00,meteohub,2013-03-20 15:20:00,
2013-03-20 11:25:00,23.9,18.9,29.85,West,269,3.0,8.0,81,0.00,,,0.00,meteohub,2013-03-20 15:25:00,
2013-03-20 11:30:00,24.1,19.4,29.85,North,355,2.0,8.0,82,0.00,,,0.00,meteohub,2013-03-20 15:30:00,
2013-03-20 11:35:00,24.3,19.2,29.85,NNW,332,2.0,8.0,81,0.00,,,0.00,meteohub,2013-03-20 15:35:00,
2013-03-20 11:40:00,24.6,19.4,29.85,NW,307,5.0,9.0,80,0.00,,,0.00,meteohub,2013-03-20 15:40:00,
2013-03-20 11:45:00,24.4,18.9,29.85,WSW,246,1.0,10.0,79,0.00,,,0.00,meteohub,2013-03-20 15:45:00,
2013-03-20 11:50:00,24.4,18.9,29.85,WNW,290,5.0,13.0,79,0.00,,,0.00,meteohub,2013-03-20 15:50:00,
2013-03-20 11:55:00,25.2,19.9,29.85,NW,305,5.0,13.0,80,0.00,,,0.00,meteohub,2013-03-20 15:55:00,
2013-03-20 12:00:00,25.2,19.9,29.85,WNW,286,5.0,13.0,80,0.00,,,0.00,meteohub,2013-03-20 16:00:00,
2013-03-20 12:05:00,25.9,20.5,29.85,WSW,247,5.0,13.0,80,0.00,,,0.00,meteohub,2013-03-20 16:05:00,
2013-03-20 12:10:00,26.1,20.1,29.85,NW,308,5.0,13.0,78,0.00,,,0.00,meteohub,2013-03-20 16:10:00,
2013-03-20 12:15:00,25.7,19.8,29.85,WSW,245,8.0,13.0,78,0.00,,,0.00,meteohub,2013-03-20 16:15:00,
2013-03-20 12:20:00,25.9,20.3,29.85,West,269,3.0,13.0,79,0.00,,,0.00,meteohub,2013-03-20 16:20:00,
2013-03-20 12:26:00,26.2,20.7,29.84,West,265,10.0,11.0,79,0.00,,,0.00,meteohub,2013-03-20 16:26:00,
2013-03-20 12:31:00,26.4,20.5,29.84,SW,232,11.0,11.0,78,0.00,,,0.00,meteohub,2013-03-20 16:31:00,
2013-03-20 12:36:00,26.4,20.5,29.84,SW,219,8.0,12.0,78,0.00,,,0.00,meteohub,2013-03-20 16:36:00,
2013-03-20 12:41:00,26.2,20.8,29.84,West,259,4.0,13.0,80,0.01,,,0.01,meteohub,2013-03-20 16:41:00,
2013-03-20 12:46:00,26.1,21.0,29.85,WSW,243,2.0,13.0,81,0.01,,,0.01,meteohub,2013-03-20 16:46:00,
2013-03-20 12:51:00,26.1,21.0,29.85,West,261,3.0,13.0,81,0.01,,,0.01,meteohub,2013-03-20 16:51:00,
2013-03-20 12:56:00,26.2,21.2,29.85,NW,323,6.0,11.0,81,0.01,,,0.01,meteohub,2013-03-20 16:56:00,
2013-03-20 13:01:00,26.1,21.0,29.85,West,267,0.0,8.0,81,0.01,,,0.01,meteohub,2013-03-20 17:01:00,
2013-03-20 13:06:00,26.1,21.4,29.84,SW,236,6.0,10.0,82,0.01,,,0.01,meteohub,2013-03-20 17:06:00,
2013-03-20 13:11:00,26.4,21.9,29.84,WSW,250,5.0,10.0,83,0.01,,,0.01,meteohub,2013-03-20 17:11:00,
2013-03-20 13:17:00,27.1,22.1,29.84,North,9,3.0,10.0,81,0.01,,,0.01,meteohub,2013-03-20 17:17:00,
2013-03-20 13:22:00,27.9,22.3,29.84,WNW,282,6.0,11.0,79,0.02,,,0.02,meteohub,2013-03-20 17:22:00,
2013-03-20 13:27:00,27.9,21.9,29.84,NW,323,3.0,11.0,78,0.02,,,0.02,meteohub,2013-03-20 17:27:00,
2013-03-20 13:32:00,27.5,21.2,29.84,West,278,8.0,11.0,77,0.02,,,0.02,meteohub,2013-03-20 17:32:00,
2013-03-20 13:37:00,27.7,21.4,29.84,WNW,285,1.0,12.0,77,0.01,,,0.02,meteohub,2013-03-20 17:37:00,
2013-03-20 13:42:00,28.2,21.6,29.83,WSW,243,8.0,12.0,76,0.01,,,0.02,meteohub,2013-03-20 17:42:00,
2013-03-20 13:47:00,28.0,21.2,29.83,SW,223,5.0,10.0,75,0.02,,,0.03,meteohub,2013-03-20 17:47:00,
2013-03-20 13:52:00,28.2,21.6,29.83,West,259,4.0,13.0,76,0.02,,,0.03,meteohub,2013-03-20 17:52:00,
2013-03-20 13:57:00,28.0,21.7,29.83,West,261,5.0,15.0,77,0.02,,,0.03,meteohub,2013-03-20 17:57:00,
2013-03-20 14:02:00,28.0,21.4,29.83,WSW,254,4.0,15.0,76,0.03,,,0.04,meteohub,2013-03-20 18:02:00,
2013-03-20 14:07:00,27.7,21.7,29.83,SW,234,9.0,15.0,78,0.03,,,0.04,meteohub,2013-03-20 18:07:00,
2013-03-20 14:12:00,27.3,21.4,29.83,SW,235,3.0,15.0,78,0.03,,,0.04,meteohub,2013-03-20 18:12:00,
2013-03-20 14:17:00,27.3,21.4,29.83,WNW,294,7.0,15.0,78,0.03,,,0.04,meteohub,2013-03-20 18:17:00,
2013-03-20 14:22:00,27.1,21.7,29.83,West,259,8.0,15.0,80,0.02,,,0.04,meteohub,2013-03-20 18:22:00,
2013-03-20 14:27:00,27.1,22.1,29.83,West,281,6.0,15.0,81,0.03,,,0.05,meteohub,2013-03-20 18:27:00,
2013-03-20 14:32:00,27.3,22.3,29.83,WNW,294,1.0,14.0,81,0.03,,,0.05,meteohub,2013-03-20 18:32:00,
2013-03-20 14:37:00,27.3,22.8,29.82,WSW,242,2.0,14.0,83,0.03,,,0.05,meteohub,2013-03-20 18:37:00,
2013-03-20 14:42:00,27.3,22.6,29.83,West,266,3.0,14.0,82,0.03,,,0.05,meteohub,2013-03-20 18:42:00,
2013-03-20 14:48:00,27.1,22.6,29.83,NW,308,7.0,12.0,83,0.02,,,0.05,meteohub,2013-03-20 18:48:00,
2013-03-20 14:53:00,27.1,22.5,29.82,WNW,292,4.0,13.0,82,0.02,,,0.05,meteohub,2013-03-20 18:53:00,
2013-03-20 14:58:00,28.0,23.2,29.82,NW,311,3.0,18.0,82,0.02,,,0.05,meteohub,2013-03-20 18:58:00,
2013-03-20 15:03:00,28.8,23.0,29.82,West,275,2.0,18.0,79,0.01,,,0.05,meteohub,2013-03-20 19:03:00,
2013-03-20 15:08:00,28.4,22.5,29.82,WNW,300,8.0,18.0,78,0.01,,,0.05,meteohub,2013-03-20 19:08:00,
2013-03-20 15:13:00,28.4,22.6,29.82,SW,232,5.0,14.0,79,0.01,,,0.05,meteohub,2013-03-20 19:13:00,
2013-03-20 15:18:00,28.8,23.0,29.81,WNW,302,5.0,13.0,79,0.01,,,0.05,meteohub,2013-03-20 19:18:00,
2013-03-20 15:23:00,29.1,23.4,29.81,WSW,251,7.0,13.0,79,0.01,,,0.05,meteohub,2013-03-20 19:23:00,
2013-03-20 15:28:00,29.1,23.2,29.82,WSW,241,10.0,12.0,78,0.00,,,0.05,meteohub,2013-03-20 19:28:00,
2013-03-20 15:33:00,29.5,23.5,29.81,WNW,297,8.0,17.0,78,0.01,,,0.06,meteohub,2013-03-20 19:33:00,
2013-03-20 15:38:00,29.5,21.9,29.82,NNE,24,5.0,17.0,73,0.01,,,0.06,meteohub,2013-03-20 19:38:00,
2013-03-20 15:43:00,29.3,21.7,29.82,WNW,298,1.0,17.0,73,0.01,,,0.06,meteohub,2013-03-20 19:43:00,
2013-03-20 15:48:00,28.9,21.4,29.82,ENE,69,13.0,13.0,73,0.01,,,0.06,meteohub,2013-03-20 19:48:00,
2013-03-20 15:53:00,29.1,21.2,29.82,WSW,255,4.0,14.0,72,0.01,,,0.06,meteohub,2013-03-20 19:53:00,
2013-03-20 15:58:00,29.1,21.2,29.82,NW,325,6.0,14.0,72,0.01,,,0.06,meteohub,2013-03-20 19:58:00,
2013-03-20 16:03:00,28.9,21.4,29.83,NW,322,2.0,14.0,73,0.01,,,0.06,meteohub,2013-03-20 20:03:00,
2013-03-20 16:07:00,28.8,21.6,29.82,WNW,296,2.0,13.0,74,0.01,,,0.06,meteohub,2013-03-20 20:07:00,
2013-03-20 16:12:00,28.8,21.6,29.83,WSW,252,7.0,13.0,74,0.01,,,0.06,meteohub,2013-03-20 20:12:00,
2013-03-20 16:17:00,28.8,22.1,29.82,WSW,250,5.0,13.0,76,0.01,,,0.06,meteohub,2013-03-20 20:17:00,
2013-03-20 16:22:00,29.3,22.1,29.83,SW,232,3.0,13.0,74,0.01,,,0.06,meteohub,2013-03-20 20:22:00,
2013-03-20 16:27:00,29.5,21.6,29.83,West,279,9.0,17.0,72,0.00,,,0.06,meteohub,2013-03-20 20:27:00,
2013-03-20 16:32:00,29.7,21.4,29.82,NW,316,2.0,17.0,71,0.00,,,0.06,meteohub,2013-03-20 20:32:00,
2013-03-20 16:38:00,29.5,21.2,29.82,West,272,2.0,17.0,71,0.01,,,0.07,meteohub,2013-03-20 20:38:00,
2013-03-20 16:43:00,28.9,20.1,29.82,West,277,3.0,17.0,69,0.01,,,0.07,meteohub,2013-03-20 20:43:00,
2013-03-20 16:48:00,29.3,20.7,29.83,WNW,290,5.0,16.0,70,0.01,,,0.07,meteohub,2013-03-20 20:48:00,
2013-03-20 16:53:00,29.8,20.3,29.82,West,263,6.0,16.0,67,0.01,,,0.07,meteohub,2013-03-20 20:53:00,
2013-03-20 16:58:00,30.2,20.3,29.83,WNW,295,3.0,17.0,66,0.01,,,0.07,meteohub,2013-03-20 20:58:00,
2013-03-20 17:03:00,29.8,19.6,29.83,WSW,244,7.0,17.0,65,0.01,,,0.07,meteohub,2013-03-20 21:03:00,
2013-03-20 17:08:00,29.5,19.6,29.83,NW,309,10.0,14.0,66,0.01,,,0.07,meteohub,2013-03-20 21:08:00,
2013-03-20 17:13:00,29.3,19.8,29.83,West,273,7.0,16.0,67,0.01,,,0.07,meteohub,2013-03-20 21:13:00,
2013-03-20 17:18:00,29.1,19.9,29.83,NW,306,5.0,16.0,68,0.01,,,0.07,meteohub,2013-03-20 21:18:00,
2013-03-20 17:23:00,28.9,19.4,29.83,SW,231,8.0,16.0,67,0.01,,,0.07,meteohub,2013-03-20 21:23:00,
2013-03-20 17:28:00,28.8,19.6,29.83,NW,308,4.0,13.0,68,0.01,,,0.07,meteohub,2013-03-20 21:28:00,
2013-03-20 17:33:00,28.6,19.8,29.83,WSW,248,5.0,18.0,69,0.02,,,0.08,meteohub,2013-03-20 21:33:00,
2013-03-20 17:38:00,28.6,19.8,29.83,WSW,257,5.0,18.0,69,0.01,,,0.08,meteohub,2013-03-20 21:38:00,
2013-03-20 17:43:00,28.6,19.8,29.84,West,259,4.0,18.0,69,0.01,,,0.08,meteohub,2013-03-20 21:43:00,
2013-03-20 17:48:00,28.8,19.9,29.84,NW,322,5.0,16.0,69,0.01,,,0.08,meteohub,2013-03-20 21:48:00,
2013-03-20 17:53:00,28.8,19.9,29.84,WSW,252,1.0,13.0,69,0.01,,,0.08,meteohub,2013-03-20 21:53:00,
2013-03-20 17:58:00,28.6,20.1,29.85,West,265,5.0,13.0,70,0.01,,,0.08,meteohub,2013-03-20 21:58:00,
2013-03-20 18:03:00,28.4,20.1,29.84,West,260,7.0,19.0,71,0.01,,,0.08,meteohub,2013-03-20 22:03:00,
2013-03-20 18:08:00,28.4,20.1,29.84,WNW,290,2.0,19.0,71,0.01,,,0.08,meteohub,2013-03-20 22:08:00,
2013-03-20 18:13:00,28.4,20.1,29.85,NW,323,7.0,19.0,71,0.01,,,0.08,meteohub,2013-03-20 22:13:00,
2013-03-20 18:18:00,28.0,20.1,29.85,SSW,200,7.0,17.0,72,0.01,,,0.08,meteohub,2013-03-20 22:18:00,
2013-03-20 18:24:00,27.9,19.9,29.85,West,271,3.0,17.0,72,0.01,,,0.08,meteohub,2013-03-20 22:24:00,
2013-03-20 18:28:00,27.7,19.8,29.85,WNW,296,10.0,14.0,72,0.00,,,0.08,meteohub,2013-03-20 22:28:00,
2013-03-20 18:33:00,27.7,20.1,29.86,West,263,3.0,15.0,73,0.00,,,0.08,meteohub,2013-03-20 22:33:00,
2013-03-20 18:38:00,27.5,20.3,29.86,WSW,240,5.0,15.0,74,0.00,,,0.08,meteohub,2013-03-20 22:38:00,
2013-03-20 18:44:00,27.3,19.8,29.86,West,263,4.0,15.0,73,0.00,,,0.08,meteohub,2013-03-20 22:44:00,
2013-03-20 18:49:00,27.1,19.6,29.86,WSW,251,1.0,12.0,73,0.00,,,0.08,meteohub,2013-03-20 22:49:00,
2013-03-20 18:54:00,27.1,19.9,29.86,NNW,338,7.0,14.0,74,0.00,,,0.08,meteohub,2013-03-20 22:54:00,
2013-03-20 18:59:00,26.8,19.9,29.86,WNW,283,3.0,14.0,75,0.00,,,0.08,meteohub,2013-03-20 22:59:00,
2013-03-20 19:04:00,26.8,19.9,29.87,WSW,254,5.0,14.0,75,0.00,,,0.08,meteohub,2013-03-20 23:04:00,
2013-03-20 19:09:00,26.8,19.9,29.87,WSW,252,5.0,14.0,75,0.00,,,0.08,meteohub,2013-03-20 23:09:00,
2013-03-20 19:14:00,26.4,19.6,29.87,WSW,255,4.0,14.0,75,0.00,,,0.08,meteohub,2013-03-20 23:14:00,
2013-03-20 19:19:00,26.4,19.6,29.87,WNW,289,2.0,14.0,75,0.00,,,0.08,meteohub,2013-03-20 23:19:00,
2013-03-20 19:24:00,26.4,19.9,29.87,WSW,244,3.0,13.0,76,0.00,,,0.08,meteohub,2013-03-20 23:24:00,
2013-03-20 19:29:00,26.2,19.8,29.87,NW,304,7.0,9.0,76,0.00,,,0.08,meteohub,2013-03-20 23:29:00,
2013-03-20 19:34:00,26.2,19.4,29.87,WSW,244,5.0,9.0,75,0.00,,,0.08,meteohub,2013-03-20 23:34:00,
2013-03-20 19:39:00,26.1,19.2,29.87,SW,216,7.0,11.0,75,0.00,,,0.08,meteohub,2013-03-20 23:39:00,
2013-03-20 19:44:00,26.1,18.9,29.87,WSW,246,6.0,11.0,74,0.00,,,0.08,meteohub,2013-03-20 23:44:00,
2013-03-20 19:49:00,26.1,18.9,29.88,WNW,283,3.0,11.0,74,0.00,,,0.08,meteohub,2013-03-20 23:49:00,
2013-03-20 19:54:00,26.1,18.9,29.87,West,279,1.0,11.0,74,0.00,,,0.08,meteohub,2013-03-20 23:54:00,
2013-03-20 19:59:00,25.9,19.0,29.87,NW,319,8.0,11.0,75,0.00,,,0.08,meteohub,2013-03-20 23:59:00,
2013-03-20 20:04:00,25.9,18.7,29.87,WNW,291,1.0,10.0,74,0.00,,,0.08,meteohub,2013-03-21 00:04:00,
2013-03-20 20:09:00,25.9,18.7,29.87,NNW,329,3.0,11.0,74,0.00,,,0.00,meteohub,2013-03-21 00:09:00,
2013-03-20 20:14:00,25.5,18.3,29.88,WNW,286,0.0,11.0,74,0.00,,,0.00,meteohub,2013-03-21 00:14:00,
2013-03-20 20:19:00,25.3,18.1,29.88,West,267,3.0,11.0,74,0.00,,,0.00,meteohub,2013-03-21 00:19:00,
2013-03-20 20:24:00,25.3,18.1,29.88,WSW,246,8.0,11.0,74,0.00,,,0.00,meteohub,2013-03-21 00:24:00,
2013-03-20 20:29:00,25.3,18.1,29.88,WNW,289,7.0,8.0,74,0.00,,,0.00,meteohub,2013-03-21 00:29:00,
2013-03-20 20:34:00,25.2,18.0,29.88,NNW,340,1.0,10.0,74,0.00,,,0.00,meteohub,2013-03-21 00:34:00,
2013-03-20 20:39:00,25.2,18.0,29.88,West,273,7.0,10.0,74,0.00,,,0.00,meteohub,2013-03-21 00:39:00,
2013-03-20 20:44:00,25.2,18.0,29.88,WSW,245,5.0,7.0,74,0.00,,,0.00,meteohub,2013-03-21 00:44:00,
2013-03-20 20:49:00,25.0,18.0,29.88,NW,321,1.0,9.0,74,0.00,,,0.00,meteohub,2013-03-21 00:49:00,
2013-03-20 20:54:00,24.8,18.0,29.88,NW,307,7.0,9.0,75,0.00,,,0.00,meteohub,2013-03-21 00:54:00,
2013-03-20 20:59:00,25.0,18.0,29.88,West,277,4.0,9.0,74,0.00,,,0.00,meteohub,2013-03-21 00:59:00,
2013-03-20 21:05:00,24.8,17.8,29.88,West,260,4.0,11.0,74,0.00,,,0.00,meteohub,2013-03-21 01:05:00,
2013-03-20 21:10:00,24.6,17.8,29.88,WNW,292,4.0,11.0,75,0.00,,,0.00,meteohub,2013-03-21 01:10:00,
2013-03-20 21:15:00,24.4,17.6,29.88,WSW,250,3.0,11.0,75,0.00,,,0.00,meteohub,2013-03-21 01:15:00,
2013-03-20 21:20:00,24.4,17.6,29.88,NW,304,1.0,11.0,75,0.00,,,0.00,meteohub,2013-03-21 01:20:00,
2013-03-20 21:25:00,24.3,17.4,29.88,NW,307,5.0,11.0,75,0.00,,,0.00,meteohub,2013-03-21 01:25:00,
2013-03-20 21:30:00,24.3,17.4,29.88,NNW,343,2.0,11.0,75,0.00,,,0.00,meteohub,2013-03-21 01:30:00,
2013-03-20 21:35:00,24.3,17.4,29.88,WNW,282,2.0,10.0,75,0.00,,,0.00,meteohub,2013-03-21 01:35:00,
2013-03-20 21:40:00,24.3,17.8,29.89,WSW,248,3.0,10.0,76,0.00,,,0.00,meteohub,2013-03-21 01:40:00,
2013-03-20 21:45:00,24.1,17.6,29.89,West,263,8.0,8.0,76,0.00,,,0.00,meteohub,2013-03-21 01:45:00,
2013-03-20 21:50:00,24.1,18.0,29.89,WNW,296,3.0,8.0,77,0.00,,,0.00,meteohub,2013-03-21 01:50:00,
2013-03-20 21:55:00,23.9,17.8,29.89,WNW,284,3.0,11.0,77,0.00,,,0.00,meteohub,2013-03-21 01:55:00,
2013-03-20 22:00:00,23.7,17.6,29.89,West,276,3.0,11.0,77,0.00,,,0.00,meteohub,2013-03-21 02:00:00,
2013-03-20 22:05:00,23.7,17.6,29.89,NW,312,0.0,9.0,77,0.00,,,0.00,meteohub,2013-03-21 02:05:00,
2013-03-20 22:10:00,23.5,17.8,29.89,NW,306,1.0,7.0,78,0.00,,,0.00,meteohub,2013-03-21 02:10:00,
2013-03-20 22:15:00,23.4,17.6,29.89,NW,311,0.0,8.0,78,0.00,,,0.00,meteohub,2013-03-21 02:15:00,
2013-03-20 22:20:00,23.2,17.4,29.89,NW,311,0.0,8.0,78,0.00,,,0.00,meteohub,2013-03-21 02:20:00,
2013-03-20 22:25:00,23.0,17.2,29.88,WNW,286,1.0,8.0,78,0.00,,,0.00,meteohub,2013-03-21 02:25:00,
2013-03-20 22:30:00,22.6,17.1,29.89,West,275,1.0,5.0,79,0.00,,,0.00,meteohub,2013-03-21 02:30:00,
2013-03-20 22:35:00,22.6,17.4,29.89,West,267,3.0,6.0,80,0.00,,,0.00,meteohub,2013-03-21 02:35:00,
2013-03-20 22:40:00,22.6,17.4,29.89,West,265,1.0,6.0,80,0.00,,,0.00,meteohub,2013-03-21 02:40:00,
2013-03-20 22:45:00,22.6,17.8,29.89,West,268,1.0,9.0,81,0.00,,,0.00,meteohub,2013-03-21 02:45:00,
2013-03-20 22:50:00,22.5,17.8,29.89,West,279,2.0,9.0,82,0.00,,,0.00,meteohub,2013-03-21 02:50:00,
2013-03-20 22:55:00,22.6,18.0,29.89,West,276,1.0,9.0,82,0.00,,,0.00,meteohub,2013-03-21 02:55:00,
2013-03-20 23:00:00,22.6,18.0,29.89,SW,226,2.0,7.0,82,0.00,,,0.00,meteohub,2013-03-21 03:00:00,
2013-03-20 23:05:00,22.6,18.0,29.89,WSW,252,3.0,11.0,82,0.00,,,0.00,meteohub,2013-03-21 03:05:00,
2013-03-20 23:10:00,22.6,18.0,29.89,WSW,244,1.0,11.0,82,0.00,,,0.00,meteohub,2013-03-21 03:10:00,
2013-03-20 23:15:00,22.6,17.8,29.88,WNW,283,3.0,10.0,81,0.00,,,0.00,meteohub,2013-03-21 03:15:00,
2013-03-20 23:20:00,22.6,18.0,29.89,West,280,3.0,10.0,82,0.00,,,0.00,meteohub,2013-03-21 03:20:00,
2013-03-20 23:26:00,22.5,17.8,29.89,West,279,3.0,10.0,82,0.00,,,0.00,meteohub,2013-03-21 03:26:00,
2013-03-20 23:31:00,22.3,17.6,29.89,West,261,2.0,8.0,82,0.00,,,0.00,meteohub,2013-03-21 03:31:00,
2013-03-20 23:36:00,22.5,17.8,29.89,WSW,253,7.0,10.0,82,0.00,,,0.00,meteohub,2013-03-21 03:36:00,
2013-03-20 23:41:00,22.5,18.1,29.89,WNW,301,2.0,10.0,83,0.00,,,0.00,meteohub,2013-03-21 03:41:00,
2013-03-20 23:46:00,22.5,17.8,29.89,WSW,237,0.0,9.0,82,0.00,,,0.00,meteohub,2013-03-21 03:46:00,
2013-03-20 23:51:00,22.5,17.8,29.89,West,268,2.0,9.0,82,0.00,,,0.00,meteohub,2013-03-21 03:51:00,
2013-03-20 23:56:00,22.3,18.0,29.89,WNW,288,0.0,9.0,83,0.00,,,0.00,meteohub,2013-03-21 03:56:00,